Time;durP1;ratioP1;P1;durP2;ratioP2;P2;SDS_P1;SDS_P2;PMS_P1;PMS_P2;Temp;Humidity;BMP_temperature;BMP_pressure;BME280_temperature;BME280_humidity;BME280_pressure;Samples;Min_cycle;Max_cycle;Signal;HPM_P1;HPM_P2
2022/08/08 00:02:11;;;;;;;0.00;0.00;;;;;;;21.82;44.75;102157.81;7356476;19;20777;-65
2022/08/08 00:04:45;;;;;;;0.00;0.00;;;;;;;21.76;45.57;102155.44;7346771;19;20017;-65
2022/08/08 00:07:30;;;;;;;0.00;0.00;;;;;;;21.71;45.71;102155.66;7348255;19;20518;-65
2022/08/08 00:10:07;;;;;;;0.03;0.03;;;;;;;21.65;44.22;102157.72;7356062;19;20632;-65
2022/08/08 00:12:43;;;;;;;0.00;0.00;;;;;;;21.58;45.73;102161.59;7357061;19;20003;-65
2022/08/08 00:15:14;;;;;;;0.00;0.00;;;;;;;21.52;46.35;102161.88;7357543;19;20373;-65
2022/08/08 00:18:02;;;;;;;0.00;0.00;;;;;;;21.45;44.50;102153.31;7357991;19;20021;-65
2022/08/08 00:20:43;;;;;;;0.00;0.00;;;;;;;21.38;45.35;102165.16;7356869;19;20454;-65
2022/08/08 00:23:34;;;;;;;0.00;0.00;;;;;;;21.31;44.71;102159.25;7356102;19;20466;-65
2022/08/08 00:26:04;;;;;;;0.00;0.00;;;;;;;21.22;45.95;102159.63;7256671;19;2004650;-65
2022/08/08 00:28:43;;;;;;;0.00;0.00;;;;;;;21.18;45.60;102158.88;7355688;19;20003;-64
2022/08/08 00:31:17;;;;;;;0.00;0.00;;;;;;;21.12;46.63;102158.28;7355416;19;20010;-65
2022/08/08 00:35:09;;;;;;;0.00;0.00;;;;;;;21.06;46.73;102166.53;7357166;19;20007;-65
2022/08/08 00:36:47;;;;;;;0.00;0.00;;;;;;;20.98;46.76;102162.44;7255756;19;2004589;-63
2022/08/08 00:39:18;;;;;;;0.00;0.00;;;;;;;20.90;47.01;102164.53;7358945;19;20107;-66
2022/08/08 00:42:09;;;;;;;0.00;0.00;;;;;;;20.87;46.02;102159.34;7358574;19;20146;-65
2022/08/08 00:44:37;;;;;;;0.00;0.00;;;;;;;20.80;47.51;102162.34;7358719;19;20316;-66
2022/08/08 00:47:31;;;;;;;0.00;0.00;;;;;;;20.73;45.81;102161.72;7357396;19;20129;-65
2022/08/08 00:50:27;;;;;;;0.00;0.00;;;;;;;20.66;46.18;102155.81;7255913;19;2004520;-66
2022/08/08 00:52:55;;;;;;;0.00;0.00;;;;;;;20.58;47.45;102149.09;7257214;19;2004571;-65
2022/08/08 00:55:48;;;;;;;0.00;0.00;;;;;;;20.51;46.79;102158.25;7356094;19;20004;-66
2022/08/08 00:58:29;;;;;;;0.00;0.00;;;;;;;20.40;46.69;102154.19;7255466;19;2004767;-65
2022/08/08 01:01:20;;;;;;;0.00;0.00;;;;;;;20.24;46.04;102153.09;7354960;19;20013;-65
2022/08/08 01:03:57;;;;;;;0.00;0.00;;;;;;;20.18;47.80;102153.34;7355083;19;20021;-65
2022/08/08 01:06:50;;;;;;;0.00;0.00;;;;;;;20.08;46.03;102163.44;7356150;19;20018;-65
2022/08/08 01:09:57;;;;;;;0.00;0.00;;;;;;;20.00;46.67;102154.06;7251932;19;2004297;-66
2022/08/08 01:12:47;;;;;;;0.00;0.00;;;;;;;19.87;47.18;102154.53;7256441;19;2004378;-65
2022/08/08 01:15:37;;;;;;;0.00;0.00;;;;;;;19.78;48.05;102154.03;7363029;19;20003;-66
2022/08/08 01:18:34;;;;;;;0.00;0.00;;;;;;;19.68;46.81;102149.06;7357538;19;20029;-65
2022/08/08 01:21:26;;;;;;;0.10;0.10;;;;;;;19.59;46.82;102159.13;7256008;19;2004567;-64
2022/08/08 01:23:54;;;;;;;0.00;0.00;;;;;;;19.53;48.84;102156.69;7355120;19;20018;-65
2022/08/08 01:26:38;;;;;;;0.00;0.00;;;;;;;19.44;49.44;102156.09;7354962;19;20014;-65
2022/08/08 01:29:27;;;;;;;0.00;0.00;;;;;;;19.36;49.54;102160.84;7357793;19;20002;-65
2022/08/08 01:32:23;;;;;;;0.00;0.00;;;;;;;19.27;48.29;102155.00;7356191;19;20018;-65
2022/08/08 01:34:59;;;;;;;0.00;0.00;;;;;;;19.17;49.84;102154.47;7256516;19;2004632;-65
2022/08/08 01:37:25;;;;;;;0.00;0.00;;;;;;;19.07;50.26;102158.34;7362976;19;20146;-64
2022/08/08 01:40:03;;;;;;;0.10;0.10;;;;;;;18.99;49.88;102163.03;7362948;19;20090;-65
2022/08/08 01:42:32;;;;;;;0.00;0.00;;;;;;;18.87;50.18;102165.19;7357357;19;20017;-65
2022/08/08 01:45:25;;;;;;;0.00;0.00;;;;;;;18.77;49.38;102163.78;7361696;19;20018;-64
2022/08/08 01:48:15;;;;;;;0.03;0.03;;;;;;;18.65;49.86;102170.31;7362338;19;20027;-65
2022/08/08 01:51:19;;;;;;;0.00;0.00;;;;;;;18.53;49.17;102159.25;7363032;19;20648;-65
2022/08/08 01:54:06;;;;;;;0.00;0.00;;;;;;;18.40;49.48;102164.97;7259285;19;2003993;-65
2022/08/08 01:56:37;;;;;;;0.00;0.00;;;;;;;18.31;50.69;102170.53;7367717;19;20010;-65
2022/08/08 01:59:24;;;;;;;0.00;0.00;;;;;;;18.25;49.74;102175.13;7349299;19;20021;-64
2022/08/08 02:02:26;;;;;;;0.00;0.00;;;;;;;18.18;49.20;102163.88;7364201;19;20119;-65
2022/08/08 02:05:09;;;;;;;0.00;0.00;;;;;;;18.10;50.02;102172.06;7262794;19;2006047;-65
2022/08/08 02:08:04;;;;;;;0.00;0.00;;;;;;;18.04;51.19;102168.72;7364969;19;20025;-64
2022/08/08 02:10:34;;;;;;;0.00;0.00;;;;;;;17.96;52.23;102170.75;7263201;19;2004298;-64
2022/08/08 02:13:07;;;;;;;0.00;0.00;;;;;;;17.85;52.80;102164.00;7362244;19;20044;-65
2022/08/08 02:15:56;;;;;;;0.00;0.00;;;;;;;17.81;52.76;102169.44;7364208;19;20015;-65
2022/08/08 02:18:52;;;;;;;0.00;0.00;;;;;;;17.74;50.79;102174.03;7361501;19;20464;-65
2022/08/08 02:24:23;;;;;;;0.00;0.00;;;;;;;17.60;52.39;102165.59;7260743;19;2004640;-65
2022/08/08 02:27:23;;;;;;;0.00;0.00;;;;;;;17.55;50.85;102172.78;7362420;19;20346;-66
2022/08/08 02:30:03;;;;;;;0.00;0.00;;;;;;;17.51;52.58;102174.66;7254553;19;2004185;-66
2022/08/08 02:33:00;;;;;;;0.00;0.00;;;;;;;17.38;51.03;102160.91;7358216;19;20006;-65
2022/08/08 02:35:32;;;;;;;0.00;0.00;;;;;;;17.38;54.87;102171.47;7259774;19;2004486;-64
2022/08/08 02:38:31;;;;;;;0.00;0.00;;;;;;;17.33;51.54;102177.78;7362372;19;20003;-66
2022/08/08 02:41:35;;;;;;;0.00;0.00;;;;;;;17.25;51.77;102172.72;7259437;19;2004385;-65
2022/08/08 02:44:00;;;;;;;0.00;0.00;;;;;;;17.16;55.31;102178.25;7257862;19;2004369;-66
2022/08/08 02:46:47;;;;;;;0.00;0.00;;;;;;;17.11;54.96;102177.50;7360868;19;20010;-65
2022/08/08 02:50:01;;;;;;;0.00;0.00;;;;;;;17.06;52.51;102174.13;7361520;19;20047;-65
2022/08/08 02:52:38;;;;;;;0.00;0.00;;;;;;;17.02;54.64;102175.09;7258664;19;2004388;-65
2022/08/08 02:55:21;;;;;;;0.00;0.00;;;;;;;16.98;53.68;102176.97;7364154;19;20010;-65
2022/08/08 02:58:24;;;;;;;0.00;0.00;;;;;;;16.97;53.64;102174.34;7366945;19;20930;-66
2022/08/08 03:01:17;;;;;;;0.00;0.00;;;;;;;16.96;53.73;102177.91;7255787;19;2004419;-65
2022/08/08 03:03:54;;;;;;;0.00;0.00;;;;;;;16.94;55.78;102179.72;7350943;19;20014;-65
2022/08/08 03:06:32;;;;;;;0.00;0.00;;;;;;;16.94;55.09;102185.00;7361628;19;20010;-66
2022/08/08 03:09:15;;;;;;;0.00;0.00;;;;;;;16.93;54.73;102183.25;7361978;19;20014;-64
2022/08/08 03:12:28;;;;;;;0.00;0.00;;;;;;;16.83;53.12;102172.97;7360220;19;20070;-64
2022/08/08 03:15:01;;;;;;;0.00;0.00;;;;;;;16.89;54.66;102185.13;7258255;19;2004350;-64
2022/08/08 03:17:41;;;;;;;0.00;0.00;;;;;;;16.88;54.31;102190.41;7360112;19;20006;-65
2022/08/08 03:20:09;;;;;;;0.00;0.00;;;;;;;16.85;56.21;102176.41;7353254;19;20021;-64
2022/08/08 03:22:45;;;;;;;0.00;0.00;;;;;;;16.83;54.48;102180.88;7358555;19;20054;-64
2022/08/08 03:25:13;;;;;;;0.00;0.00;;;;;;;16.81;56.61;102187.94;7363170;19;21312;-65
2022/08/08 03:28:01;;;;;;;0.03;0.03;;;;;;;16.79;54.25;102187.13;7359601;19;20044;-64
2022/08/08 03:30:27;;;;;;;0.00;0.00;;;;;;;16.77;57.02;102183.63;7362466;19;20021;-66
2022/08/08 03:35:39;;;;;;;0.00;0.00;;;;;;;16.77;56.53;102193.31;7362313;19;20676;-65
2022/08/08 03:38:05;;;;;;;0.00;0.00;;;;;;;16.76;56.58;102195.09;7363248;19;20043;-64
2022/08/08 03:40:31;;;;;;;0.00;0.00;;;;;;;16.75;56.11;102196.00;7362843;19;20496;-65
2022/08/08 03:42:57;;;;;;;0.00;0.00;;;;;;;16.74;56.18;102199.56;7361844;19;20089;-64
2022/08/08 03:45:25;;;;;;;0.00;0.00;;;;;;;16.74;56.54;102194.28;7364033;19;20011;-65
2022/08/08 03:48:09;;;;;;;0.00;0.00;;;;;;;16.73;54.57;102200.47;7363101;19;20350;-65
2022/08/08 03:50:39;;;;;;;0.00;0.00;;;;;;;16.71;56.33;102199.63;7364353;19;20013;-66
2022/08/08 03:53:10;;;;;;;0.00;0.00;;;;;;;16.71;56.34;102202.25;7361449;19;20641;-65
2022/08/08 03:55:40;;;;;;;0.00;0.00;;;;;;;16.69;55.13;102201.41;7363865;19;20074;-66
2022/08/08 03:58:07;;;;;;;0.00;0.00;;;;;;;16.57;56.56;102186.75;7364226;19;20006;-65
2022/08/08 04:00:32;;;;;;;0.00;0.00;;;;;;;16.65;55.74;102199.75;7363778;19;20030;-65
2022/08/08 04:03:05;;;;;;;0.00;0.00;;;;;;;16.64;56.42;102203.28;7362236;19;20021;-65
2022/08/08 04:05:33;;;;;;;0.00;0.00;;;;;;;16.52;55.90;102193.88;7363194;19;20006;-65
2022/08/08 04:07:59;;;;;;;;;;;;;;;16.59;52.80;102207.81;7363865;19;20014;-64
2022/08/08 04:10:27;;;;;;;0.00;0.00;;;;;;;16.56;55.81;102210.50;7365202;19;19930;-65
2022/08/08 04:12:54;;;;;;;0.00;0.00;;;;;;;16.51;55.99;102212.38;7361937;19;20018;-64
2022/08/08 04:15:19;;;;;;;0.00;0.00;;;;;;;16.38;56.40;102200.41;7365492;19;20023;-65
2022/08/08 04:17:45;;;;;;;0.00;0.00;;;;;;;16.46;56.35;102214.25;7365410;19;20030;-65
2022/08/08 04:20:10;;;;;;;0.00;0.00;;;;;;;16.42;56.31;102217.88;7365237;19;20018;-65
2022/08/08 04:22:36;;;;;;;0.00;0.00;;;;;;;16.40;56.52;102219.69;7360402;19;20485;-65
2022/08/08 04:25:02;;;;;;;0.00;0.00;;;;;;;16.36;56.13;102218.88;7363710;19;20010;-65
2022/08/08 04:27:28;;;;;;;0.00;0.00;;;;;;;16.22;56.49;102200.75;7361648;19;20013;-65
2022/08/08 04:29:54;;;;;;;0.00;0.00;;;;;;;16.28;56.49;102220.84;7365018;19;20014;-65
2022/08/08 04:32:19;;;;;;;0.00;0.00;;;;;;;16.23;56.28;102220.06;7361494;19;20022;-65
2022/08/08 04:34:45;;;;;;;0.00;0.00;;;;;;;16.21;56.32;102225.34;7363886;19;20038;-65
2022/08/08 04:37:11;;;;;;;0.00;0.00;;;;;;;16.15;56.83;102217.59;7361232;19;20085;-65
2022/08/08 04:39:37;;;;;;;0.00;0.00;;;;;;;16.12;57.23;102220.31;7363514;19;20014;-64
2022/08/08 04:42:03;;;;;;;0.00;0.00;;;;;;;16.10;57.06;102216.81;7364010;19;20057;-65
2022/08/08 04:44:28;;;;;;;0.00;0.00;;;;;;;16.05;56.75;102216.91;7362522;19;20374;-65
2022/08/08 04:46:54;;;;;;;0.00;0.00;;;;;;;16.04;56.78;102227.50;7363755;19;20433;-65
2022/08/08 04:49:19;;;;;;;0.10;0.10;;;;;;;15.99;57.60;102221.44;7362616;19;20006;-65
2022/08/08 04:51:45;;;;;;;0.00;0.00;;;;;;;15.97;57.35;102228.53;7361922;19;20011;-65
2022/08/08 04:54:10;;;;;;;0.00;0.00;;;;;;;15.88;57.80;102215.53;7361727;19;20007;-65
2022/08/08 04:56:37;;;;;;;0.00;0.00;;;;;;;15.90;57.85;102221.63;7363516;19;20089;-64
2022/08/08 04:59:03;;;;;;;0.00;0.00;;;;;;;15.89;57.23;102227.81;7362100;19;22543;-66
2022/08/08 05:01:28;;;;;;;0.00;0.00;;;;;;;15.86;57.65;102230.50;7363496;19;20015;-65
2022/08/08 05:03:53;;;;;;;0.00;0.00;;;;;;;15.83;58.00;102236.72;7359159;19;20110;-65
2022/08/08 05:06:19;;;;;;;0.00;0.00;;;;;;;15.65;57.65;102203.69;7363119;19;20477;-64
2022/08/08 05:08:46;;;;;;;0.00;0.00;;;;;;;15.77;58.06;102234.19;7362253;19;20013;-65
2022/08/08 05:11:12;;;;;;;0.00;0.00;;;;;;;15.68;58.20;102218.56;7367180;19;20011;-65
2022/08/08 05:13:39;;;;;;;0.00;0.00;;;;;;;15.72;58.59;102236.91;7367537;19;20030;-65
2022/08/08 05:16:04;;;;;;;0.00;0.00;;;;;;;15.68;58.26;102229.97;7369867;19;20865;-65
2022/08/08 05:18:32;;;;;;;0.10;0.10;;;;;;;15.66;58.60;102236.16;7365781;19;20030;-64
2022/08/08 05:20:58;;;;;;;0.00;0.00;;;;;;;15.65;58.45;102240.56;7367821;19;20015;-64
2022/08/08 05:23:23;;;;;;;0.00;0.00;;;;;;;15.64;58.43;102243.22;7365984;19;20013;-64
2022/08/08 05:25:50;;;;;;;0.00;0.00;;;;;;;15.57;58.70;102231.91;7369521;19;20082;-65
2022/08/08 05:28:15;;;;;;;0.00;0.00;;;;;;;15.51;58.76;102224.09;7366577;19;20006;-64
2022/08/08 05:30:41;;;;;;;0.00;0.00;;;;;;;15.61;58.78;102251.13;7367865;19;20046;-66
2022/08/08 05:33:06;;;;;;;0.08;0.08;;;;;;;15.60;59.57;102247.66;7365619;19;20019;-65
2022/08/08 05:35:33;;;;;;;0.00;0.00;;;;;;;15.59;59.32;102251.19;7368595;19;20015;-65
2022/08/08 05:38:02;;;;;;;0.08;0.08;;;;;;;15.57;59.13;102252.97;7369933;19;20011;-65
2022/08/08 05:40:28;;;;;;;0.00;0.00;;;;;;;15.56;59.39;102253.84;7367739;19;20126;-65
2022/08/08 05:43:02;;;;;;;0.00;0.00;;;;;;;15.53;58.86;102249.53;7368314;19;20053;-64
2022/08/08 05:45:30;;;;;;;0.00;0.00;;;;;;;15.52;59.62;102249.56;7361898;19;20585;-64
2022/08/08 05:47:55;;;;;;;0.00;0.00;;;;;;;15.38;60.13;102222.63;7367819;19;20025;-66
2022/08/08 05:50:22;;;;;;;0.00;0.00;;;;;;;15.42;59.63;102237.47;7368179;19;20010;-66
2022/08/08 05:52:48;;;;;;;0.00;0.00;;;;;;;15.42;60.26;102243.59;7367509;19;20369;-65
2022/08/08 05:55:13;;;;;;;0.00;0.00;;;;;;;15.48;60.44;102248.75;7364435;19;20010;-65
2022/08/08 05:57:41;;;;;;;0.00;0.00;;;;;;;15.49;59.93;102258.38;7361644;19;20066;-64
2022/08/08 06:00:08;;;;;;;;;;;;;;;15.51;56.35;102258.34;7365732;19;21071;-65
2022/08/08 06:05:20;;;;;;;0.00;0.00;;;;;;;15.49;60.66;102255.75;7366874;19;20013;-65
2022/08/08 06:07:48;;;;;;;0.00;0.00;;;;;;;15.51;60.59;102258.34;7365080;19;20038;-64
2022/08/08 06:10:14;;;;;;;0.00;0.00;;;;;;;15.51;60.89;102266.22;7367316;19;20684;-65
2022/08/08 06:12:43;;;;;;;0.00;0.00;;;;;;;15.51;60.44;102260.97;7364251;19;20010;-65
2022/08/08 06:15:10;;;;;;;0.00;0.00;;;;;;;15.52;61.13;102260.97;7364286;19;20010;-65
2022/08/08 06:17:40;;;;;;;0.00;0.00;;;;;;;15.56;60.30;102261.75;7367247;19;20038;-65
2022/08/08 06:20:10;;;;;;;0.00;0.00;;;;;;;15.60;60.82;102265.22;7363537;19;20051;-65
2022/08/08 06:22:36;;;;;;;0.03;0.03;;;;;;;15.61;61.75;102259.91;7364756;19;20011;-65
2022/08/08 06:25:03;;;;;;;0.00;0.00;;;;;;;15.65;62.04;102272.16;7365521;19;20010;-65
2022/08/08 06:27:42;;;;;;;0.00;0.00;;;;;;;15.73;60.18;102275.53;7365187;19;20006;-65
2022/08/08 06:30:10;;;;;;;0.00;0.00;;;;;;;15.75;61.88;102273.72;7365534;19;20017;-65
2022/08/08 06:32:58;;;;;;;0.00;0.00;;;;;;;15.86;59.30;102272.63;7363922;19;20494;-66
2022/08/08 06:35:24;;;;;;;0.00;0.00;;;;;;;15.83;62.29;102271.81;7363602;19;20036;-65
2022/08/08 06:37:52;;;;;;;0.10;0.10;;;;;;;15.93;62.62;102282.19;7367641;19;20058;-63
2022/08/08 06:40:21;;;;;;;0.00;0.00;;;;;;;15.97;62.42;102282.09;7365084;19;20011;-65
2022/08/08 06:42:55;;;;;;;0.00;0.00;;;;;;;16.04;61.00;102285.47;7363227;19;20028;-65
2022/08/08 06:45:22;;;;;;;0.00;0.00;;;;;;;16.06;61.88;102283.66;7364112;19;20029;-66
2022/08/08 06:47:48;;;;;;;0.00;0.00;;;;;;;16.03;62.34;102275.84;7362074;19;20114;-64
2022/08/08 06:50:14;;;;;;;0.00;0.00;;;;;;;16.16;62.29;102293.09;7362455;19;20037;-65
2022/08/08 06:52:41;;;;;;;0.00;0.00;;;;;;;16.15;62.29;102283.47;7361544;19;20077;-64
2022/08/08 06:55:07;;;;;;;0.08;0.08;;;;;;;16.26;62.15;102286.75;7361921;19;20013;-65
2022/08/08 06:57:33;;;;;;;0.00;0.00;;;;;;;16.31;62.27;102291.91;7356034;19;20042;-65
2022/08/08 06:59:59;;;;;;;0.00;0.00;;;;;;;16.35;62.00;102286.56;7353026;19;20002;-65
2022/08/08 07:02:29;;;;;;;0.00;0.00;;;;;;;16.31;62.00;102276.97;7359030;19;20128;-65
2022/08/08 07:05:01;;;;;;;0.00;0.00;;;;;;;16.49;62.18;102288.03;7366401;19;20016;-65
2022/08/08 07:07:51;;;;;;;0.00;0.00;;;;;;;16.49;60.59;102273.09;7356880;19;20040;-65
2022/08/08 07:10:20;;;;;;;0.00;0.00;;;;;;;16.61;62.03;102288.63;7361218;19;20702;-65
2022/08/08 07:13:04;;;;;;;0.00;0.00;;;;;;;16.70;61.25;102286.69;7358427;19;20109;-64
2022/08/08 07:15:42;;;;;;;0.00;0.00;;;;;;;16.76;61.38;102292.72;7361622;19;20569;-65
2022/08/08 07:18:08;;;;;;;0.00;0.00;;;;;;;16.78;61.83;102284.78;7363632;19;20639;-65
2022/08/08 07:20:43;;;;;;;0.10;0.10;;;;;;;16.88;62.15;102295.97;7365851;19;20073;-64
2022/08/08 07:23:15;;;;;;;0.00;0.00;;;;;;;16.93;62.05;102305.53;7365331;19;20029;-65
2022/08/08 07:25:41;;;;;;;0.00;0.00;;;;;;;16.96;62.47;102288.75;7361745;19;20015;-65
2022/08/08 07:28:08;;;;;;;0.00;0.00;;;;;;;17.06;62.14;102300.81;7363507;19;20463;-64
2022/08/08 07:30:34;;;;;;;0.00;0.00;;;;;;;17.04;62.19;102286.78;7360699;19;20006;-65
2022/08/08 07:33:00;;;;;;;0.00;0.00;;;;;;;17.19;62.16;102296.13;7359919;19;20452;-65
2022/08/08 07:35:26;;;;;;;0.00;0.00;;;;;;;17.15;62.30;102276.84;7364375;19;20010;-65
2022/08/08 07:37:54;;;;;;;0.00;0.00;;;;;;;17.34;61.90;102290.44;7362609;19;20002;-64
2022/08/08 07:40:20;;;;;;;0.00;0.00;;;;;;;17.41;62.04;102296.44;7364329;19;20073;-65
2022/08/08 07:42:46;;;;;;;0.05;0.05;;;;;;;17.46;62.41;102299.81;7361212;19;20083;-65
2022/08/08 07:45:11;;;;;;;0.00;0.00;;;;;;;17.48;61.68;102293.56;7363130;19;20017;-66
2022/08/08 07:47:37;;;;;;;0.00;0.00;;;;;;;17.66;61.74;102307.22;7361556;19;20010;-65
2022/08/08 07:50:03;;;;;;;0.00;0.00;;;;;;;17.74;61.16;102310.53;7361067;19;20002;-64
2022/08/08 07:52:30;;;;;;;0.10;0.10;;;;;;;17.80;61.30;102311.25;7364405;19;20103;-66
2022/08/08 07:55:04;;;;;;;0.00;0.00;;;;;;;17.94;59.79;102308.22;7364504;19;20030;-64
2022/08/08 07:58:11;;;;;;;0.00;0.00;;;;;;;18.04;59.28;102308.84;7358182;19;20014;-65
2022/08/08 08:00:48;;;;;;;0.03;0.03;;;;;;;18.08;60.13;102321.91;7259567;19;2004386;-65
2022/08/08 08:03:21;;;;;;;0.00;0.00;;;;;;;18.19;59.45;102318.97;7364233;19;20874;-65
2022/08/08 08:05:52;;;;;;;0.10;0.10;;;;;;;18.24;60.02;102311.78;7363004;19;20014;-66
2022/08/08 08:08:24;;;;;;;0.00;0.00;;;;;;;18.30;60.03;102313.41;7363311;19;20045;-64
2022/08/08 08:10:54;;;;;;;0.03;0.03;;;;;;;18.36;59.65;102318.50;7363172;19;20050;-65
2022/08/08 08:13:28;;;;;;;0.00;0.00;;;;;;;18.47;58.37;102307.59;7362575;19;20011;-65
2022/08/08 08:16:04;;;;;;;0.00;0.00;;;;;;;18.48;59.43;102315.47;7363529;19;20010;-65
2022/08/08 08:18:37;;;;;;;0.00;0.00;;;;;;;18.57;58.78;102309.06;7362260;19;20027;-66
2022/08/08 08:21:03;;;;;;;0.10;0.10;;;;;;;18.63;58.56;102304.44;7363905;19;20513;-65
2022/08/08 08:23:28;;;;;;;0.10;0.10;;;;;;;18.70;58.43;102313.06;7360615;19;20011;-65
2022/08/08 08:25:54;;;;;;;0.10;0.10;;;;;;;18.78;58.33;102312.84;7362586;19;20010;-66
2022/08/08 08:28:21;;;;;;;0.00;0.00;;;;;;;18.84;57.39;102313.50;7362617;19;20006;-65
2022/08/08 08:30:46;;;;;;;0.00;0.00;;;;;;;18.90;57.91;102315.97;7362056;19;20080;-66
2022/08/08 08:33:12;;;;;;;0.00;0.00;;;;;;;18.98;57.93;102314.88;7363787;19;20078;-66
2022/08/08 08:35:38;;;;;;;0.00;0.00;;;;;;;19.01;57.73;102312.09;7363188;19;20760;-65
2022/08/08 08:38:04;;;;;;;0.10;0.10;;;;;;;19.10;57.71;102315.31;7359169;19;21165;-66
2022/08/08 08:40:30;;;;;;;0.08;0.08;;;;;;;19.09;57.62;102307.44;7362664;19;20024;-66
2022/08/08 08:42:55;;;;;;;0.00;0.00;;;;;;;19.21;57.77;102312.34;7362913;19;20348;-65
2022/08/08 08:45:21;;;;;;;0.10;0.10;;;;;;;19.29;57.43;102318.25;7353819;19;20015;-65
2022/08/08 08:47:49;;;;;;;0.10;0.10;;;;;;;19.39;57.85;102322.31;7358325;19;25453;-65
2022/08/08 08:50:14;;;;;;;0.00;0.00;;;;;;;19.42;57.37;102327.53;7362650;19;20074;-66
2022/08/08 08:52:42;;;;;;;0.00;0.00;;;;;;;19.51;57.48;102325.44;7363794;19;20017;-66
2022/08/08 08:55:13;;;;;;;0.03;0.03;;;;;;;19.58;57.17;102321.69;7361258;19;20046;-66
2022/08/08 08:57:41;;;;;;;0.00;0.00;;;;;;;19.63;57.35;102322.44;7362612;19;20018;-66
2022/08/08 09:00:09;;;;;;;0.00;0.00;;;;;;;19.65;57.04;102318.78;7362469;19;20007;-65
2022/08/08 09:02:36;;;;;;;;;;;;;;;19.82;55.45;102318.22;7360837;19;20078;-65
2022/08/08 09:05:04;;;;;;;0.03;0.03;;;;;;;19.80;56.73;102317.38;7363669;19;20737;-67
2022/08/08 09:07:33;;;;;;;0.08;0.08;;;;;;;19.89;56.47;102318.84;7361065;19;20691;-65
2022/08/08 09:09:59;;;;;;;0.08;0.08;;;;;;;19.95;57.02;102311.53;7362979;19;20934;-66
2022/08/08 09:12:26;;;;;;;0.00;0.00;;;;;;;20.09;56.50;102318.13;7364032;19;20010;-65
2022/08/08 09:14:54;;;;;;;0.00;0.00;;;;;;;20.29;56.56;102310.31;7360955;19;20449;-65
2022/08/08 09:17:23;;;;;;;0.00;0.00;;;;;;;20.52;55.78;102325.38;7363165;19;20010;-65
2022/08/08 09:19:52;;;;;;;0.00;0.00;;;;;;;20.81;55.22;102318.91;7359707;19;20395;-65
2022/08/08 09:22:20;;;;;;;0.00;0.00;;;;;;;21.05;55.24;102310.91;7362077;19;20015;-66
2022/08/08 09:24:46;;;;;;;0.00;0.00;;;;;;;21.22;54.37;102297.78;7361009;19;20022;-65
2022/08/08 09:27:12;;;;;;;0.00;0.00;;;;;;;21.65;53.76;102314.59;7362794;19;20007;-66
2022/08/08 09:29:51;;;;;;;0.10;0.10;;;;;;;22.05;53.37;102307.47;7360543;19;20072;-64
2022/08/08 09:32:46;;;;;;;0.10;0.10;;;;;;;22.45;52.44;102293.22;7357126;19;20708;-65
2022/08/08 09:35:14;;;;;;;0.10;0.10;;;;;;;22.79;51.97;102293.34;7258698;19;2004535;-66
2022/08/08 09:37:44;;;;;;;0.00;0.00;;;;;;;23.17;51.45;102297.75;7359408;19;20006;-66
2022/08/08 09:40:12;;;;;;;0.10;0.10;;;;;;;23.53;50.68;102295.03;7362193;19;20115;-66
2022/08/08 09:43:17;;;;;;;0.10;0.10;;;;;;;24.13;50.60;102286.50;7357636;19;20087;-66
2022/08/08 09:45:57;;;;;;;0.10;0.10;;;;;;;24.56;49.09;102282.38;7257728;19;2004294;-66
2022/08/08 09:48:23;;;;;;;0.00;0.00;;;;;;;24.74;47.27;102283.16;7360807;19;20014;-67
2022/08/08 09:50:50;;;;;;;0.10;0.10;;;;;;;25.00;47.30;102282.50;7352668;19;22828;-66
2022/08/08 09:53:19;;;;;;;0.05;0.05;;;;;;;25.27;46.79;102285.38;7360451;19;20546;-66
2022/08/08 09:55:45;;;;;;;0.10;0.10;;;;;;;25.46;45.94;102285.13;7362308;19;20008;-66
2022/08/08 09:58:19;;;;;;;0.05;0.05;;;;;;;25.81;46.22;102269.63;7366077;19;20013;-66
2022/08/08 10:00:46;;;;;;;0.10;0.10;;;;;;;25.88;44.16;102280.81;7366474;19;20097;-66
2022/08/08 10:03:16;;;;;;;0.10;0.10;;;;;;;26.08;45.08;102271.53;7366039;19;20611;-66
2022/08/08 10:05:44;;;;;;;0.00;0.00;;;;;;;26.23;44.89;102265.19;7366103;19;20010;-66
2022/08/08 10:08:09;;;;;;;0.08;0.08;;;;;;;26.42;43.81;102267.59;7368436;19;20093;-66
2022/08/08 10:10:38;;;;;;;0.00;0.00;;;;;;;26.68;44.09;102265.03;7367501;19;20510;-67
2022/08/08 10:13:25;;;;;;;0.05;0.05;;;;;;;27.08;44.34;102269.47;7365573;19;20014;-65
2022/08/08 10:15:52;;;;;;;0.10;0.10;;;;;;;27.24;41.35;102249.66;7367922;19;20517;-66
2022/08/08 10:18:24;;;;;;;0.00;0.00;;;;;;;27.84;42.44;102267.84;7368122;19;20026;-66
2022/08/08 10:21:01;;;;;;;0.10;0.10;;;;;;;28.12;39.64;102256.84;7367431;19;20622;-65
2022/08/08 10:23:33;;;;;;;0.03;0.03;;;;;;;28.62;41.41;102257.66;7366606;19;20021;-65
2022/08/08 10:25:58;;;;;;;0.03;0.03;;;;;;;28.91;40.81;102254.63;7361570;19;20018;-65
2022/08/08 10:28:25;;;;;;;0.00;0.00;;;;;;;29.34;38.99;102267.50;7369780;19;20050;-66
2022/08/08 10:30:56;;;;;;;0.10;0.10;;;;;;;29.88;39.47;102266.88;7365719;19;20006;-66
2022/08/08 10:33:32;;;;;;;0.00;0.00;;;;;;;30.36;39.50;102263.88;7366434;19;20334;-66
2022/08/08 10:36:03;;;;;;;0.03;0.03;;;;;;;30.75;36.58;102274.09;7367301;19;20023;-67
2022/08/08 10:38:30;;;;;;;0.00;0.00;;;;;;;30.99;35.70;102271.19;7367342;19;20466;-66
2022/08/08 10:41:03;;;;;;;0.00;0.00;;;;;;;31.37;36.01;102268.91;7366241;19;20078;-66
2022/08/08 10:43:38;;;;;;;0.10;0.10;;;;;;;31.74;36.59;102269.28;7366747;19;20015;-66
2022/08/08 10:46:24;;;;;;;0.00;0.00;;;;;;;32.01;31.55;102271.41;7366498;19;20083;-65
2022/08/08 10:48:49;;;;;;;0.10;0.10;;;;;;;32.33;31.67;102276.63;7363185;19;20007;-66
2022/08/08 10:51:15;;;;;;;0.00;0.00;;;;;;;32.58;29.50;102269.84;7366570;19;20397;-67
2022/08/08 10:53:40;;;;;;;0.00;0.00;;;;;;;32.78;32.28;102270.72;7365947;19;20018;-67
2022/08/08 10:56:08;;;;;;;0.00;0.00;;;;;;;33.01;30.26;102271.34;7366769;19;20477;-66
2022/08/08 10:58:34;;;;;;;0.00;0.00;;;;;;;33.25;28.75;102268.16;7363231;19;20579;-66
2022/08/08 11:01:07;;;;;;;0.00;0.00;;;;;;;33.74;30.69;102271.63;7365643;19;20081;-64
2022/08/08 11:03:43;;;;;;;0.00;0.00;;;;;;;33.99;31.27;102275.53;7364159;19;20007;-63
2022/08/08 11:06:09;;;;;;;0.00;0.00;;;;;;;34.12;28.69;102267.06;7362983;19;20010;-64
2022/08/08 11:08:40;;;;;;;0.10;0.10;;;;;;;34.41;30.01;102254.16;7365384;19;20851;-64
2022/08/08 11:11:08;;;;;;;0.00;0.00;;;;;;;34.76;27.69;102256.06;7362322;19;20014;-63
2022/08/08 11:13:44;;;;;;;0.00;0.00;;;;;;;35.27;28.48;102262.59;7364927;19;20018;-64
2022/08/08 11:16:21;;;;;;;0.10;0.10;;;;;;;35.57;28.02;102265.88;7365562;19;20007;-64
2022/08/08 11:18:48;;;;;;;0.10;0.10;;;;;;;35.71;26.39;102259.00;7358444;19;20021;-65
2022/08/08 11:21:15;;;;;;;0.00;0.00;;;;;;;35.87;25.95;102242.75;7359771;19;20025;-63
2022/08/08 11:23:42;;;;;;;0.00;0.00;;;;;;;36.29;26.32;102269.94;7361546;19;20014;-63
2022/08/08 11:26:11;;;;;;;0.00;0.00;;;;;;;36.62;25.13;102264.59;7360395;19;20444;-64
2022/08/08 11:28:37;;;;;;;0.10;0.10;;;;;;;36.82;24.20;102270.56;7363718;19;20018;-64
2022/08/08 11:31:03;;;;;;;;;;;;;;;37.39;29.72;102268.72;7366843;19;20037;-65
2022/08/08 11:33:30;;;;;;;;;;;;;;;37.65;29.71;102267.63;7364319;19;19990;-63
2022/08/08 11:35:56;;;;;;;0.10;0.10;;;;;;;37.44;24.63;102248.25;7363080;19;19918;-64
2022/08/08 11:38:22;;;;;;;0.00;0.00;;;;;;;37.61;22.80;102263.53;7357392;19;20358;-63
2022/08/08 11:40:50;;;;;;;0.00;0.00;;;;;;;37.81;22.04;102262.09;7363640;19;20081;-63
2022/08/08 11:43:16;;;;;;;0.00;0.00;;;;;;;37.97;22.88;102257.63;7364905;19;20042;-63
2022/08/08 11:45:44;;;;;;;0.05;0.05;;;;;;;38.20;21.84;102244.88;7364233;19;20893;-64
2022/08/08 11:48:11;;;;;;;0.03;0.03;;;;;;;38.44;21.90;102262.19;7364520;19;20025;-62
2022/08/08 11:50:37;;;;;;;0.00;0.00;;;;;;;38.67;21.87;102258.41;7364523;19;20010;-64
2022/08/08 11:53:03;;;;;;;0.00;0.00;;;;;;;38.98;22.46;102259.38;7362670;19;20017;-64
2022/08/08 11:55:29;;;;;;;0.10;0.10;;;;;;;39.23;21.90;102262.75;7365396;19;20095;-64
2022/08/08 11:58:08;;;;;;;0.10;0.10;;;;;;;39.66;22.72;102263.84;7362671;19;20021;-63
2022/08/08 12:00:41;;;;;;;0.10;0.10;;;;;;;39.64;20.61;102257.69;7362941;19;20355;-64